Time;durP1;ratioP1;P1;durP2;ratioP2;P2;SDS_P1;SDS_P2;PMS_P1;PMS_P2;Temp;Humidity;BMP_temperature;BMP_pressure;BME280_temperature;BME280_humidity;BME280_pressure;Samples;Min_cycle;Max_cycle;Signal;HPM_P1;HPM_P2
2023/12/30 00:00:42;;;;;;;3.40;2.50;;;;;;;-1.69;88.47;95824.23;110528;1274;22135;-77
2023/12/30 00:03:31;;;;;;;3.60;2.40;;;;;;;-1.61;89.06;95827.24;110508;1274;22168;-77
2023/12/30 00:06:00;;;;;;;18.40;7.80;;;;;;;-1.54;88.91;95828.15;110614;1274;22150;-77
2023/12/30 00:08:28;;;;;;;27.30;12.40;;;;;;;-1.49;88.93;95825.57;110603;1274;22132;-77
2023/12/30 00:10:56;;;;;;;5.10;3.60;;;;;;;-1.39;89.23;95821.55;110519;1274;22112;-76
2023/12/30 00:13:24;;;;;;;4.10;3.70;;;;;;;-1.33;88.84;95822.27;110498;1274;22263;-77
2023/12/30 00:15:53;;;;;;;5.40;2.90;;;;;;;-1.33;88.41;95820.39;110084;1274;594096;-77
2023/12/30 00:18:21;;;;;;;2.90;1.90;;;;;;;-1.31;88.05;95823.36;110523;1274;22124;-77
2023/12/30 00:20:49;;;;;;;2.40;2.00;;;;;;;-1.31;88.38;95826.48;110484;1271;22199;-77
2023/12/30 00:23:18;;;;;;;2.10;1.70;;;;;;;-1.31;88.15;95829.08;110584;1274;22941;-77
2023/12/30 00:25:46;;;;;;;3.50;1.70;;;;;;;-1.32;88.29;95826.63;110575;1274;22174;-77
2023/12/30 00:28:14;;;;;;;3.00;2.00;;;;;;;-1.23;88.97;95821.70;110509;1274;22884;-77
2023/12/30 00:30:43;;;;;;;3.90;1.90;;;;;;;-1.16;88.67;95816.22;110481;1274;22190;-77
2023/12/30 00:33:12;;;;;;;4.70;3.20;;;;;;;-1.17;88.30;95818.43;110516;1263;22277;-77
2023/12/30 00:35:40;;;;;;;3.70;2.10;;;;;;;-1.13;88.38;95817.69;110520;1274;22854;-77
2023/12/30 00:38:08;;;;;;;2.80;1.40;;;;;;;-1.11;88.27;95823.62;110578;1274;22196;-77
2023/12/30 00:40:37;;;;;;;4.00;2.00;;;;;;;-1.21;87.25;95826.76;110610;1274;22192;-76
2023/12/30 00:43:05;;;;;;;3.30;2.40;;;;;;;-1.34;87.23;95821.04;110622;1274;22156;-77
2023/12/30 00:45:33;;;;;;;2.70;1.70;;;;;;;-1.38;87.58;95820.23;110495;1274;22109;-77
2023/12/30 00:48:03;;;;;;;1.60;1.50;;;;;;;-1.38;87.87;95820.38;110479;1274;22794;-77
2023/12/30 00:50:31;;;;;;;3.80;1.70;;;;;;;-1.37;88.00;95814.89;110567;1275;22893;-77
2023/12/30 00:52:59;;;;;;;2.30;2.10;;;;;;;-1.41;87.61;95814.27;110466;1274;22149;-77
2023/12/30 00:55:28;;;;;;;3.60;2.40;;;;;;;-1.48;87.39;95812.83;110498;1274;22858;-76
2023/12/30 00:57:57;;;;;;;2.50;1.40;;;;;;;-1.52;87.50;95813.92;110482;1274;22953;-77
2023/12/30 01:00:25;;;;;;;11.50;5.40;;;;;;;-1.62;87.11;95817.06;110505;1275;22144;-77
2023/12/30 01:02:53;;;;;;;10.10;4.60;;;;;;;-1.72;86.95;95815.00;110483;1274;22158;-77
2023/12/30 01:05:21;;;;;;;5.00;2.60;;;;;;;-1.76;87.42;95812.99;110499;1274;22118;-77
2023/12/30 01:07:50;;;;;;;4.60;2.70;;;;;;;-1.79;87.57;95813.42;110609;1274;22147;-77
2023/12/30 01:10:18;;;;;;;11.20;5.40;;;;;;;-1.83;87.61;95811.21;110616;1274;22239;-76
2023/12/30 01:12:46;;;;;;;11.30;6.10;;;;;;;-1.90;87.46;95813.39;110505;1274;22089;-77
2023/12/30 01:15:14;;;;;;;9.80;5.10;;;;;;;-2.00;87.43;95813.44;110511;1274;22327;-77
2023/12/30 01:17:43;;;;;;;7.70;3.90;;;;;;;-2.09;87.35;95807.92;110511;1274;22176;-77
2023/12/30 01:20:11;;;;;;;3.70;3.00;;;;;;;-2.13;87.62;95804.52;110512;1266;22140;-77
2023/12/30 01:22:39;;;;;;;2.20;1.60;;;;;;;-2.14;87.99;95803.14;110604;1274;22145;-77
2023/12/30 01:25:08;;;;;;;3.00;1.90;;;;;;;-2.14;87.86;95801.23;110641;1274;22801;-76
2023/12/30 01:27:36;;;;;;;4.30;2.40;;;;;;;-2.14;87.79;95803.31;110534;1274;22134;-77
2023/12/30 01:30:06;;;;;;;18.40;9.50;;;;;;;-2.14;87.91;95805.02;110486;1274;22123;-77
2023/12/30 01:32:35;;;;;;;19.40;8.50;;;;;;;-2.18;88.13;95805.59;110632;1274;22632;-77
2023/12/30 01:35:03;;;;;;;32.10;14.00;;;;;;;-2.27;87.86;95809.09;110540;1266;22122;-77
2023/12/30 01:37:33;;;;;;;32.50;15.80;;;;;;;-2.35;87.43;95806.89;110609;1274;22162;-77
2023/12/30 01:40:02;;;;;;;22.50;10.90;;;;;;;-2.40;87.92;95804.33;110504;1274;22758;-77
2023/12/30 01:42:30;;;;;;;14.50;6.80;;;;;;;-2.43;88.03;95803.16;110529;1274;22790;-77
2023/12/30 01:44:58;;;;;;;2.80;2.00;;;;;;;-2.52;88.22;95798.21;110635;1274;22545;-77
2023/12/30 01:47:27;;;;;;;3.00;2.30;;;;;;;-2.55;88.10;95798.82;110609;1274;22144;-77
2023/12/30 01:49:55;;;;;;;6.20;3.70;;;;;;;-2.49;88.43;95799.55;110498;1274;22249;-77
2023/12/30 01:52:24;;;;;;;3.40;2.60;;;;;;;-2.41;88.60;95799.28;110526;1274;22178;-77
2023/12/30 01:54:52;;;;;;;4.90;3.30;;;;;;;-2.34;88.72;95797.62;110489;1274;22154;-77
2023/12/30 01:57:21;;;;;;;6.20;3.30;;;;;;;-2.29;88.51;95797.12;110473;1274;22126;-77
2023/12/30 01:59:51;;;;;;;11.20;7.80;;;;;;;-2.29;88.32;95789.70;110632;1274;22950;-77
2023/12/30 02:02:21;;;;;;;22.80;13.90;;;;;;;-2.34;88.30;95789.02;110550;1274;22129;-77
2023/12/30 02:04:49;;;;;;;15.00;6.40;;;;;;;-2.34;88.36;95786.45;110480;1274;22103;-77
2023/12/30 02:07:18;;;;;;;4.10;2.80;;;;;;;-2.33;88.35;95786.63;110583;1274;22398;-77
2023/12/30 02:09:46;;;;;;;5.40;2.30;;;;;;;-2.24;89.21;95786.96;110507;1263;22324;-77
2023/12/30 02:12:14;;;;;;;7.40;4.60;;;;;;;-2.15;89.23;95785.86;110492;1274;22142;-77
2023/12/30 02:14:42;;;;;;;12.10;6.70;;;;;;;-2.06;89.50;95788.40;110611;1274;23011;-77
2023/12/30 02:17:11;;;;;;;14.00;7.10;;;;;;;-2.00;89.38;95783.42;110624;1274;22480;-77
2023/12/30 02:19:40;;;;;;;17.10;7.20;;;;;;;-2.00;88.59;95788.09;110493;1274;22947;-77
2023/12/30 02:22:08;;;;;;;12.50;6.70;;;;;;;-1.96;88.97;95790.27;110494;1274;22125;-77
2023/12/30 02:24:36;;;;;;;2.20;1.90;;;;;;;-1.87;89.35;95783.84;110494;1274;22133;-77
2023/12/30 02:27:05;;;;;;;3.00;1.90;;;;;;;-1.77;89.57;95781.05;110494;1274;22145;-77
2023/12/30 02:29:33;;;;;;;4.80;2.10;;;;;;;-1.72;89.37;95777.41;110609;1274;22093;-77
2023/12/30 02:32:01;;;;;;;2.20;1.70;;;;;;;-1.67;89.04;95774.64;110592;1274;22322;-77
2023/12/30 02:34:29;;;;;;;4.30;2.30;;;;;;;-1.70;88.44;95771.96;110565;1274;22120;-77
2023/12/30 02:36:58;;;;;;;2.90;1.90;;;;;;;-1.74;88.17;95765.10;110524;1274;22097;-77
2023/12/30 02:39:26;;;;;;;3.40;2.10;;;;;;;-1.74;88.32;95765.80;110494;1274;22186;-77
2023/12/30 02:41:54;;;;;;;25.70;13.80;;;;;;;-1.85;87.86;95764.25;110595;1274;22902;-77
2023/12/30 02:44:22;;;;;;;23.50;13.00;;;;;;;-1.95;87.19;95767.55;110502;1274;22152;-77
2023/12/30 02:46:52;;;;;;;3.30;1.90;;;;;;;-2.01;87.53;95765.63;110598;1274;22870;-77
2023/12/30 02:49:20;;;;;;;2.40;2.00;;;;;;;-1.99;88.17;95767.10;110518;1274;22805;-77
2023/12/30 02:51:48;;;;;;;3.30;1.40;;;;;;;-1.92;88.54;95767.48;110488;1274;22944;-77
2023/12/30 02:54:16;;;;;;;2.50;1.60;;;;;;;-1.85;88.78;95763.21;110605;1272;22162;-77
2023/12/30 02:56:45;;;;;;;2.60;1.80;;;;;;;-1.86;88.48;95762.85;110509;1274;22319;-77
2023/12/30 02:59:13;;;;;;;5.10;3.00;;;;;;;-1.84;88.53;95762.73;110576;1275;22121;-77
2023/12/30 03:01:41;;;;;;;9.00;5.50;;;;;;;-1.86;88.33;95760.59;110596;1274;22113;-77
2023/12/30 03:04:10;;;;;;;8.40;5.00;;;;;;;-1.87;88.49;95764.52;110474;1274;23146;-77
2023/12/30 03:06:38;;;;;;;5.00;3.30;;;;;;;-1.87;88.27;95763.50;110499;1274;22799;-77
2023/12/30 03:09:06;;;;;;;4.10;2.40;;;;;;;-1.95;87.89;95760.84;110516;1274;22122;-77
2023/12/30 03:11:34;;;;;;;2.70;1.70;;;;;;;-1.99;87.77;95766.91;110478;1274;22914;-77
2023/12/30 03:14:02;;;;;;;1.90;1.10;;;;;;;-2.03;87.87;95767.13;110509;1274;22094;-77
2023/12/30 03:16:32;;;;;;;2.00;1.40;;;;;;;-2.03;88.02;95765.23;110521;1272;22864;-77
2023/12/30 03:19:00;;;;;;;2.90;1.60;;;;;;;-2.05;87.97;95769.82;110508;1274;22272;-77
2023/12/30 03:21:28;;;;;;;5.60;3.20;;;;;;;-2.07;88.20;95771.99;110493;1274;22863;-78
2023/12/30 03:23:56;;;;;;;7.10;4.00;;;;;;;-2.15;87.94;95772.77;110493;1274;22111;-77
2023/12/30 03:26:25;;;;;;;5.00;3.30;;;;;;;-2.24;87.79;95769.35;110540;1274;22830;-77
2023/12/30 03:28:53;;;;;;;3.90;2.20;;;;;;;-2.32;87.86;95774.80;110500;1274;22201;-77
2023/12/30 03:31:25;;;;;;;3.60;1.80;;;;;;;-2.37;87.71;95775.30;110593;1274;22196;-78
2023/12/30 03:33:55;;;;;;;2.20;1.50;;;;;;;-2.38;88.20;95770.63;110396;1274;22155;-77
2023/12/30 03:36:23;;;;;;;22.40;12.60;;;;;;;-2.48;88.96;95770.80;110417;1275;22121;-77
2023/12/30 03:38:52;;;;;;;22.20;12.60;;;;;;;-2.53;88.69;95772.35;110509;1274;22938;-77
2023/12/30 03:41:21;;;;;;;12.50;7.10;;;;;;;-2.52;88.90;95768.96;110450;1274;22141;-76
2023/12/30 03:43:49;;;;;;;8.70;5.00;;;;;;;-2.51;89.02;95771.39;110500;1274;22126;-77
2023/12/30 03:46:18;;;;;;;15.30;9.30;;;;;;;-2.52;89.31;95769.98;110525;1274;22263;-77
2023/12/30 03:48:46;;;;;;;21.30;12.00;;;;;;;-2.61;89.28;95781.05;110514;1274;22133;-77
2023/12/30 03:51:15;;;;;;;15.20;8.60;;;;;;;-2.69;88.94;95781.63;110591;1275;22155;-77
2023/12/30 03:53:43;;;;;;;25.40;12.90;;;;;;;-2.76;88.90;95784.48;110613;1274;22300;-77
2023/12/30 03:56:12;;;;;;;14.00;8.10;;;;;;;-2.84;88.78;95790.04;110562;1275;22425;-76
2023/12/30 03:58:40;;;;;;;8.30;4.00;;;;;;;-2.86;88.95;95792.73;110568;1260;22302;-77
2023/12/30 04:01:08;;;;;;;6.20;3.20;;;;;;;-2.87;89.11;95793.22;110533;1274;22135;-77
2023/12/30 04:03:37;;;;;;;7.40;4.20;;;;;;;-2.85;89.48;95788.61;110553;1274;22307;-78
2023/12/30 04:06:05;;;;;;;12.10;5.80;;;;;;;-2.82;89.73;95785.48;110550;1274;23233;-77
2023/12/30 04:08:34;;;;;;;10.40;5.70;;;;;;;-2.79;89.60;95788.48;110539;1274;22278;-77
2023/12/30 04:11:02;;;;;;;20.90;10.60;;;;;;;-2.77;89.82;95785.80;110534;1274;22124;-77
2023/12/30 04:13:30;;;;;;;56.20;23.30;;;;;;;-2.77;89.65;95791.11;110562;1274;22149;-77
2023/12/30 04:15:59;;;;;;;42.70;18.80;;;;;;;-2.78;89.47;95788.88;110567;1275;22116;-77
2023/12/30 04:18:27;;;;;;;33.30;15.20;;;;;;;-2.76;89.57;95787.91;110477;1274;22247;-77
2023/12/30 04:20:55;;;;;;;15.80;8.30;;;;;;;-2.74;89.47;95790.55;110546;1274;22355;-77
2023/12/30 04:23:24;;;;;;;27.90;12.60;;;;;;;-2.71;89.69;95787.23;110528;1274;22230;-77
2023/12/30 04:25:52;;;;;;;25.80;11.40;;;;;;;-2.66;89.79;95790.86;110591;1274;22148;-77
2023/12/30 04:28:20;;;;;;;24.90;11.00;;;;;;;-2.65;89.54;95786.92;110508;1274;22299;-77
2023/12/30 04:30:49;;;;;;;38.50;15.90;;;;;;;-2.60;89.68;95791.06;110545;1274;22319;-77
2023/12/30 04:33:17;;;;;;;32.10;14.80;;;;;;;-2.59;89.09;95795.06;110528;1274;22169;-77
2023/12/30 04:35:46;;;;;;;32.50;14.50;;;;;;;-2.56;89.43;95790.86;110507;1274;22108;-77
2023/12/30 04:38:15;;;;;;;33.90;15.40;;;;;;;-2.51;89.35;95793.41;110624;1274;23010;-77
2023/12/30 04:40:43;;;;;;;30.30;14.30;;;;;;;-2.55;88.64;95796.73;110590;1274;22139;-77
2023/12/30 04:43:12;;;;;;;32.80;15.80;;;;;;;-2.52;88.95;95788.40;110611;1268;22172;-77
2023/12/30 04:45:40;;;;;;;29.00;14.10;;;;;;;-2.44;89.39;95792.13;110537;1274;22132;-78
2023/12/30 04:48:09;;;;;;;29.10;13.50;;;;;;;-2.37;89.24;95790.81;110528;1274;22807;-77
2023/12/30 04:50:37;;;;;;;24.00;10.70;;;;;;;-2.34;89.13;95800.05;110417;1274;22221;-77
2023/12/30 04:53:06;;;;;;;8.20;4.50;;;;;;;-2.26;89.29;95797.04;110587;1274;22164;-77
2023/12/30 04:55:36;;;;;;;7.20;4.70;;;;;;;-2.21;89.27;95792.55;110605;1274;22289;-77
2023/12/30 04:58:04;;;;;;;23.20;11.60;;;;;;;-2.10;89.42;95800.48;110562;1274;22161;-77
2023/12/30 05:00:33;;;;;;;23.50;11.80;;;;;;;-2.15;87.91;95802.21;110597;1274;22790;-77
2023/12/30 05:03:01;;;;;;;22.00;11.40;;;;;;;-2.24;87.73;95802.95;110542;1274;22206;-77
2023/12/30 05:05:30;;;;;;;21.40;10.90;;;;;;;-2.30;87.83;95803.29;110545;1274;22221;-77
2023/12/30 05:07:58;;;;;;;32.10;17.40;;;;;;;-2.32;88.14;95803.89;110558;1258;23092;-77
2023/12/30 05:10:29;;;;;;;21.80;12.50;;;;;;;-2.36;88.03;95805.64;110469;1274;22152;-77
2023/12/30 05:12:57;;;;;;;18.70;9.30;;;;;;;-2.35;88.31;95813.63;110499;1274;22103;-77
2023/12/30 05:15:25;;;;;;;11.90;6.20;;;;;;;-2.29;88.82;95808.48;110537;1274;22231;-77
2023/12/30 05:17:54;;;;;;;50.70;26.50;;;;;;;-2.26;88.73;95809.63;110573;1274;22145;-77
2023/12/30 05:20:22;;;;;;;60.20;29.20;;;;;;;-2.29;88.38;95811.05;110535;1274;22180;-77
2023/12/30 05:22:50;;;;;;;6.20;4.20;;;;;;;-2.29;88.57;95808.30;110519;1274;22193;-77
2023/12/30 05:25:18;;;;;;;15.90;8.70;;;;;;;-2.23;89.01;95811.98;110492;1274;22295;-78
2023/12/30 05:27:47;;;;;;;78.90;37.50;;;;;;;-2.22;88.75;95811.14;110527;1274;22935;-77
2023/12/30 05:30:15;;;;;;;84.30;40.90;;;;;;;-2.32;88.15;95813.36;110568;1274;22125;-77
2023/12/30 05:32:43;;;;;;;31.40;16.30;;;;;;;-2.41;88.01;95808.59;110526;1274;23138;-77
2023/12/30 05:35:11;;;;;;;25.40;13.90;;;;;;;-2.44;88.37;95812.27;110519;1258;22169;-77
2023/12/30 05:37:40;;;;;;;24.70;13.30;;;;;;;-2.45;88.50;95808.14;110502;1274;22114;-77
2023/12/30 05:40:09;;;;;;;21.30;10.70;;;;;;;-2.44;88.54;95807.12;110542;1274;22283;-77
2023/12/30 05:42:37;;;;;;;13.80;7.10;;;;;;;-2.42;88.70;95809.77;110553;1274;22147;-77
2023/12/30 05:45:06;;;;;;;7.40;4.40;;;;;;;-2.38;88.72;95809.72;110511;1274;22140;-77
2023/12/30 05:47:35;;;;;;;5.80;3.70;;;;;;;-2.36;88.74;95806.15;110557;1274;22116;-77
2023/12/30 05:50:03;;;;;;;5.50;3.80;;;;;;;-2.33;88.63;95804.88;110593;1274;22812;-77
2023/12/30 05:52:31;;;;;;;21.90;10.40;;;;;;;-2.31;88.67;95803.08;110540;1274;22111;-77
2023/12/30 05:55:00;;;;;;;15.60;7.50;;;;;;;-2.28;88.76;95803.52;110494;1274;22556;-77
2023/12/30 05:57:28;;;;;;;13.90;7.40;;;;;;;-2.26;88.62;95804.79;110518;1274;23031;-77
2023/12/30 05:59:59;;;;;;;8.50;5.30;;;;;;;-2.21;88.66;95803.60;110507;1274;22187;-77
2023/12/30 06:02:27;;;;;;;15.00;7.80;;;;;;;-2.14;88.65;95806.20;110550;1274;22115;-77
2023/12/30 06:04:56;;;;;;;14.90;8.20;;;;;;;-2.11;88.77;95799.44;110556;1274;22136;-77
2023/12/30 06:07:25;;;;;;;10.30;6.00;;;;;;;-2.08;88.90;95801.25;110544;1274;22875;-77
2023/12/30 06:09:53;;;;;;;9.20;5.20;;;;;;;-2.05;89.02;95799.79;110513;1274;22830;-77
2023/12/30 06:12:21;;;;;;;10.20;5.80;;;;;;;-1.99;89.23;95796.39;110408;1274;22144;-77
2023/12/30 06:14:49;;;;;;;9.90;5.80;;;;;;;-1.92;89.33;95802.80;110521;1258;22816;-77
2023/12/30 06:17:17;;;;;;;10.60;6.10;;;;;;;-1.82;89.61;95803.16;110509;1274;22169;-77
2023/12/30 06:19:46;;;;;;;7.30;4.80;;;;;;;-1.72;89.49;95803.27;110517;1274;22089;-77
2023/12/30 06:22:14;;;;;;;6.40;4.50;;;;;;;-1.61;89.47;95802.79;110520;1262;22262;-77
2023/12/30 06:24:42;;;;;;;6.80;4.80;;;;;;;-1.51;89.60;95805.33;110510;1267;22841;-78
2023/12/30 06:27:10;;;;;;;6.30;4.20;;;;;;;-1.38;89.81;95802.95;110522;1274;22136;-77
2023/12/30 06:29:38;;;;;;;7.30;4.50;;;;;;;-1.32;89.43;95802.12;110556;1274;22321;-78
2023/12/30 06:32:07;;;;;;;5.30;3.20;;;;;;;-1.24;89.39;95804.06;110540;1274;22175;-78
2023/12/30 06:34:35;;;;;;;11.20;6.00;;;;;;;-1.19;89.38;95800.76;110524;1274;23115;-77
2023/12/30 06:37:03;;;;;;;7.30;4.20;;;;;;;-1.12;89.47;95804.42;110520;1267;22302;-77
2023/12/30 06:39:32;;;;;;;6.50;3.60;;;;;;;-1.03;89.58;95808.66;110519;1274;22629;-77
2023/12/30 06:42:00;;;;;;;8.00;4.70;;;;;;;-0.89;90.16;95811.31;110506;1274;22309;-77
2023/12/30 06:44:29;;;;;;;6.80;3.90;;;;;;;-0.74;90.29;95813.46;110582;1274;22236;-77
2023/12/30 06:46:57;;;;;;;3.20;2.50;;;;;;;-0.62;90.03;95809.48;110573;1274;22134;-77
2023/12/30 06:49:25;;;;;;;3.70;2.40;;;;;;;-0.52;89.88;95801.47;110566;1274;22197;-77
2023/12/30 06:51:54;;;;;;;4.40;2.60;;;;;;;-0.44;89.59;95799.43;110526;1274;22119;-77
2023/12/30 06:54:22;;;;;;;12.30;4.50;;;;;;;-0.46;89.36;95808.70;110456;1274;22134;-77
2023/12/30 06:56:53;;;;;;;8.30;4.70;;;;;;;-0.48;89.17;95808.15;110523;1274;22205;-77
2023/12/30 06:59:21;;;;;;;134.20;47.30;;;;;;;-0.54;88.64;95808.49;110543;1274;22601;-77
2023/12/30 07:01:50;;;;;;;20.60;7.60;;;;;;;-0.63;88.38;95810.33;110529;1274;22865;-77
2023/12/30 07:04:18;;;;;;;102.00;34.90;;;;;;;-0.62;88.81;95805.67;110549;1274;22125;-77
2023/12/30 07:06:47;;;;;;;6.50;3.80;;;;;;;-0.62;88.78;95803.43;110531;1259;22274;-77
2023/12/30 07:09:15;;;;;;;4.70;3.20;;;;;;;-0.61;88.85;95792.39;110567;1274;22845;-77
2023/12/30 07:11:43;;;;;;;14.00;6.20;;;;;;;-0.59;89.01;95794.35;110528;1274;22537;-77
2023/12/30 07:14:11;;;;;;;81.80;44.50;;;;;;;-0.62;88.74;95789.79;110576;1258;22838;-77
2023/12/30 07:16:40;;;;;;;88.30;47.00;;;;;;;-0.67;88.52;95792.94;110552;1274;22135;-76
2023/12/30 07:19:08;;;;;;;59.10;30.30;;;;;;;-0.69;88.75;95791.30;110528;1274;22907;-77
2023/12/30 07:21:36;;;;;;;36.30;18.60;;;;;;;-0.67;88.94;95787.73;110538;1274;22152;-76
2023/12/30 07:24:05;;;;;;;41.00;20.20;;;;;;;-0.62;89.29;95792.55;110554;1275;22118;-77
2023/12/30 07:26:33;;;;;;;94.00;45.60;;;;;;;-0.59;89.57;95794.89;110502;1274;22228;-77
2023/12/30 07:29:02;;;;;;;29.20;14.80;;;;;;;-0.58;88.99;95798.36;110536;1274;22336;-77
2023/12/30 07:31:29;;;;;;;36.20;16.40;;;;;;;-0.53;89.05;95799.53;110561;1274;23056;-77
2023/12/30 07:33:58;;;;;;;42.80;19.80;;;;;;;-0.52;89.40;95795.92;110542;1274;22137;-77
2023/12/30 07:36:27;;;;;;;115.30;55.80;;;;;;;-0.53;89.76;95798.35;110517;1274;22200;-77
2023/12/30 07:38:55;;;;;;;152.10;72.90;;;;;;;-0.57;90.23;95801.14;110526;1274;23108;-77
2023/12/30 07:41:23;;;;;;;110.30;51.80;;;;;;;-0.54;90.40;95801.58;110567;1274;22329;-77
2023/12/30 07:43:51;;;;;;;93.90;47.10;;;;;;;-0.47;91.00;95804.89;110581;1274;22330;-77
2023/12/30 07:46:21;;;;;;;79.20;39.30;;;;;;;-0.35;90.49;95802.61;110526;1274;22167;-77
2023/12/30 07:48:49;;;;;;;72.60;39.50;;;;;;;-0.25;90.32;95798.71;110503;1274;22913;-77
2023/12/30 07:51:17;;;;;;;51.60;25.40;;;;;;;-0.17;90.18;95797.21;110562;1271;22161;-76
2023/12/30 07:53:45;;;;;;;56.10;31.90;;;;;;;-0.09;90.36;95800.02;110543;1274;22137;-77
2023/12/30 07:56:13;;;;;;;75.70;42.20;;;;;;;0.01;90.92;95799.20;110555;1274;22105;-77
2023/12/30 07:58:42;;;;;;;58.10;32.60;;;;;;;0.11;90.87;95797.56;110607;1274;22868;-76
2023/12/30 08:01:10;;;;;;;57.70;32.40;;;;;;;0.22;90.87;95795.41;110541;1274;22121;-77
2023/12/30 08:03:38;;;;;;;19.70;11.00;;;;;;;0.34;90.73;95796.73;110517;1274;22169;-77
2023/12/30 08:06:07;;;;;;;35.70;21.00;;;;;;;0.40;90.61;95794.27;110554;1274;22277;-77
2023/12/30 08:08:35;;;;;;;33.70;18.60;;;;;;;0.45;90.86;95800.13;110548;1274;22929;-77
2023/12/30 08:11:03;;;;;;;43.60;23.90;;;;;;;0.55;90.86;95800.15;110570;1274;22987;-77
2023/12/30 08:13:31;;;;;;;62.70;35.90;;;;;;;0.62;90.62;95805.51;110571;1274;22125;-77
2023/12/30 08:15:59;;;;;;;58.60;32.00;;;;;;;0.71;90.73;95810.91;110563;1262;22145;-77
2023/12/30 08:18:28;;;;;;;63.40;34.90;;;;;;;0.84;90.62;95804.80;110559;1274;22949;-77
2023/12/30 08:20:56;;;;;;;75.20;40.30;;;;;;;0.88;89.97;95814.42;110587;1274;23098;-77
2023/12/30 08:23:24;;;;;;;84.50;48.40;;;;;;;0.99;90.11;95811.36;110536;1274;22113;-77
2023/12/30 08:25:52;;;;;;;113.70;57.80;;;;;;;1.09;90.28;95809.52;110564;1274;22127;-77
2023/12/30 08:28:20;;;;;;;103.20;54.60;;;;;;;1.25;90.39;95811.92;110532;1263;22995;-76
2023/12/30 08:30:51;;;;;;;75.50;40.90;;;;;;;1.42;90.41;95809.66;110589;1274;22292;-77
2023/12/30 08:33:19;;;;;;;81.70;41.20;;;;;;;1.54;89.70;95806.78;110573;1274;22240;-77
2023/12/30 08:35:49;;;;;;;55.70;30.20;;;;;;;1.64;89.48;95808.71;110542;1274;22148;-76
2023/12/30 08:38:17;;;;;;;35.40;21.30;;;;;;;1.77;89.41;95808.25;110497;1274;22264;-76
2023/12/30 08:40:45;;;;;;;73.20;41.10;;;;;;;1.88;89.47;95811.58;110632;1274;22126;-76
2023/12/30 08:43:14;;;;;;;74.30;36.30;;;;;;;2.01;89.53;95811.64;110506;1274;22314;-76
2023/12/30 08:45:42;;;;;;;65.70;38.50;;;;;;;2.05;89.22;95804.08;110525;1274;22267;-76
2023/12/30 08:48:10;;;;;;;72.70;39.00;;;;;;;2.09;89.26;95801.37;110520;1274;22879;-76
2023/12/30 08:50:38;;;;;;;79.60;41.70;;;;;;;2.17;89.14;95799.08;110511;1274;22788;-76
2023/12/30 08:53:06;;;;;;;64.70;35.80;;;;;;;2.19;88.72;95801.36;110511;1274;22198;-76
2023/12/30 08:55:35;;;;;;;63.60;32.00;;;;;;;2.24;88.63;95799.02;110535;1274;22122;-76
2023/12/30 08:58:03;;;;;;;66.00;35.10;;;;;;;2.26;88.54;95794.54;110548;1273;22134;-75
2023/12/30 09:00:31;;;;;;;53.00;26.90;;;;;;;2.28;88.48;95793.71;110540;1274;23118;-76
2023/12/30 09:02:59;;;;;;;51.10;25.80;;;;;;;2.38;88.81;95792.48;110588;1274;22171;-76
2023/12/30 09:05:28;;;;;;;52.20;27.10;;;;;;;2.47;88.73;95793.13;110608;1274;22946;-76
2023/12/30 09:07:56;;;;;;;45.50;25.30;;;;;;;2.61;88.96;95792.67;110502;1274;22924;-76
2023/12/30 09:10:24;;;;;;;129.20;68.20;;;;;;;2.73;88.78;95786.95;110544;1274;22326;-76
2023/12/30 09:12:52;;;;;;;119.10;62.90;;;;;;;2.91;89.05;95775.73;110553;1274;22945;-76
2023/12/30 09:15:21;;;;;;;132.80;72.30;;;;;;;3.10;88.67;95770.60;110517;1274;23065;-76
2023/12/30 09:17:49;;;;;;;122.50;68.10;;;;;;;3.29;88.49;95766.49;110518;1274;22177;-76
2023/12/30 09:20:18;;;;;;;129.10;68.90;;;;;;;3.45;88.65;95762.16;110521;1274;22108;-76
2023/12/30 09:22:46;;;;;;;120.50;62.20;;;;;;;3.63;88.52;95762.02;110553;1274;22142;-76
2023/12/30 09:25:15;;;;;;;96.40;54.30;;;;;;;3.80;88.45;95760.80;110527;1262;22208;-76
2023/12/30 09:27:43;;;;;;;104.30;56.50;;;;;;;3.98;88.25;95757.66;110623;1274;22297;-76
2023/12/30 09:30:11;;;;;;;134.10;73.20;;;;;;;4.13;87.90;95759.55;110530;1274;22227;-75
2023/12/30 09:32:40;;;;;;;136.30;77.50;;;;;;;4.30;88.03;95756.05;110565;1274;22275;-76
2023/12/30 09:35:08;;;;;;;141.00;79.40;;;;;;;4.48;87.87;95755.14;110536;1274;22184;-76
2023/12/30 09:37:37;;;;;;;163.40;85.20;;;;;;;4.59;87.61;95753.29;110479;1274;22212;-76
2023/12/30 09:40:06;;;;;;;154.20;82.20;;;;;;;4.64;87.28;95748.98;110604;1274;22869;-76
2023/12/30 09:42:37;;;;;;;117.80;65.10;;;;;;;4.66;86.91;95750.56;110529;1274;22739;-76
2023/12/30 09:45:07;;;;;;;127.90;66.40;;;;;;;4.66;86.96;95748.29;110581;1274;22174;-75
2023/12/30 09:47:38;;;;;;;72.50;39.00;;;;;;;4.68;87.23;95752.67;110524;1274;22831;-75
2023/12/30 09:50:07;;;;;;;28.20;15.60;;;;;;;4.84;87.37;95747.34;110366;1274;22264;-76
2023/12/30 09:52:35;;;;;;;29.40;15.00;;;;;;;5.20;86.23;95733.42;110544;1274;22192;-76
2023/12/30 09:55:04;;;;;;;85.60;46.20;;;;;;;5.61;86.05;95735.84;110514;1274;23043;-76
2023/12/30 09:57:32;;;;;;;53.60;30.80;;;;;;;6.13;87.14;95735.44;110523;1274;22197;-76
2023/12/30 10:00:02;;;;;;;26.60;17.10;;;;;;;6.78;86.36;95731.04;110615;1274;22307;-76
2023/12/30 10:02:32;;;;;;;53.00;31.40;;;;;;;7.27;83.82;95724.27;110521;1274;22186;-76
2023/12/30 10:05:01;;;;;;;46.80;28.90;;;;;;;7.73;83.79;95723.18;110543;1274;22188;-76
2023/12/30 10:07:31;;;;;;;20.90;14.00;;;;;;;8.11;79.67;95718.05;110513;1274;23038;-76
2023/12/30 10:10:00;;;;;;;38.00;25.00;;;;;;;8.43;80.09;95711.86;110626;1274;22187;-76
2023/12/30 10:12:28;;;;;;;27.50;18.90;;;;;;;8.69;79.90;95704.81;110595;1274;22217;-76
2023/12/30 10:14:56;;;;;;;39.80;26.00;;;;;;;8.74;78.69;95707.05;110606;1274;22117;-76
2023/12/30 10:17:25;;;;;;;36.30;26.00;;;;;;;8.68;75.92;95709.38;110490;1274;22169;-76
2023/12/30 10:19:53;;;;;;;34.20;23.40;;;;;;;8.76;77.00;95714.90;110614;1274;22110;-76
2023/12/30 10:22:23;;;;;;;36.90;23.30;;;;;;;8.70;77.60;95716.89;110594;1274;22137;-76
2023/12/30 10:24:51;;;;;;;28.70;19.10;;;;;;;8.76;78.24;95720.17;110546;1274;22259;-76
2023/12/30 10:27:21;;;;;;;36.50;24.40;;;;;;;8.80;77.90;95719.09;110486;1274;22106;-76
2023/12/30 10:29:54;;;;;;;40.80;27.90;;;;;;;8.81;77.87;95716.44;110554;1262;22362;-76
2023/12/30 10:32:28;;;;;;;26.10;18.20;;;;;;;8.75;77.19;95711.23;110547;1274;22851;-76
2023/12/30 10:34:56;;;;;;;20.50;14.00;;;;;;;8.75;77.89;95706.67;110635;1274;22144;-76
2023/12/30 10:37:29;;;;;;;6.00;4.90;;;;;;;8.79;75.57;95700.14;110586;1274;22101;-76
2023/12/30 10:40:00;;;;;;;8.80;5.80;;;;;;;8.77;73.89;95697.54;110639;1274;22621;-76
2023/12/30 10:42:28;;;;;;;28.10;13.90;;;;;;;8.78;74.55;95695.07;110629;1274;22208;-76
2023/12/30 10:44:57;;;;;;;7.90;4.90;;;;;;;8.84;74.82;95693.44;110555;1274;22826;-76
2023/12/30 10:47:27;;;;;;;5.10;3.00;;;;;;;8.85;74.58;95689.91;110628;1274;22175;-76
2023/12/30 10:50:04;;;;;;;13.90;6.90;;;;;;;8.82;71.93;95689.59;110605;1274;22328;-76
2023/12/30 10:52:37;;;;;;;5.30;3.20;;;;;;;8.77;70.50;95684.39;110551;1274;22322;-76
2023/12/30 10:55:10;;;;;;;5.80;3.40;;;;;;;8.70;70.44;95681.48;110621;1274;22169;-76
2023/12/30 10:57:47;;;;;;;2.40;2.10;;;;;;;8.61;71.22;95685.95;110532;1274;22263;-76
2023/12/30 11:00:20;;;;;;;2.90;2.70;;;;;;;8.54;71.08;95680.58;110488;1274;22123;-76
2023/12/30 11:02:49;;;;;;;3.60;2.10;;;;;;;8.48;70.34;95682.90;110627;1274;22981;-76
2023/12/30 11:05:32;;;;;;;4.90;3.70;;;;;;;8.45;70.82;95683.11;110633;1274;22189;-76
2023/12/30 11:08:00;;;;;;;5.30;3.10;;;;;;;8.39;71.46;95687.70;110617;1274;22299;-76
2023/12/30 11:10:28;;;;;;;4.20;3.00;;;;;;;8.33;70.90;95684.75;110609;1274;22397;-76
2023/12/30 11:12:56;;;;;;;2.80;2.40;;;;;;;8.25;71.30;95687.10;110524;1274;22112;-76
2023/12/30 11:15:30;;;;;;;3.90;3.20;;;;;;;8.17;71.46;95680.50;110610;1274;22146;-76
2023/12/30 11:17:58;;;;;;;;;;;;;;;8.10;70.71;95680.20;110464;1274;22184;-76
2023/12/30 11:20:32;;;;;;;2.90;1.90;;;;;;;8.09;70.95;95671.27;110551;1274;22889;-76
2023/12/30 11:23:02;;;;;;;3.00;2.10;;;;;;;8.07;71.26;95675.50;110523;1274;22128;-76
2023/12/30 11:25:42;;;;;;;5.50;3.00;;;;;;;8.07;70.90;95672.70;110617;1274;22964;-76